Accueil
METAR-TAF:

METAR-TAF

Aéroports :

Annecy, France

Aéroport d'Annecy Haute-Savoie Mont-Blanc

latitude: 45-55-45N, longitude: 006-05-56E, altitude: 463 m

Observation

Le bulletin a été fait il y a 41 minutes, à 10:00 UTC
Vent 9 kt de nord/nord-ouest, variant entre nord-ouest et nord
Température 1°C
Humidité 64%
Pression 1007 hPa
Visibilité: 8000 m
Ciel couvert à une hauteur de 4000 ft

METAR: LFLP 221000Z AUTO 34009KT 310V010 8000 OVC040 01/M05 Q1007 NOSIG

Heure: 11:41 (10:41 UTC)

Prévision

Le bulletin a été fait il y a 2 heures et 41 minutes, à 08:00 UTC
Prévision valable du 22 à 09 UTC au 23 à 09 UTC
Vent 10 kt de nord
Visibilité: 8000 m
Nuages épars à une hauteur de 1000 ft
Nuages fragmentés à une hauteur de 3500 ft
Probabilité 30% :
Temporairement
du 22 à 12 UTC au 22 à 18 UTC

TAF: LFLP 220800Z 2209/2309 35010KT 8000 SCT010 BKN035 PROB30 TEMPO 2212/2218 NSC

Observations et prévisions météorologiques de plus de 4000 aéroports (messages METAR et TAF).

Les stations disponibles sont représentées par des disques jaunes et rouges sur la carte.

Passer la souris dessus pour voir le nom de la station.

Cliquer dessus pour voir les observations et prévisions météorologiques.

Pour changer de carte: cliquez sur les boutons verts avec une croix noire pour zoomer, sur le bouton vert avec un tiret pour effectuer un zoom arrière, ou sur les flèches vertes pour les cartes adjacentes.


METAR-TAF: